Soaring Guidance
Issued by NWS Reno, NV

Home | Current Version | Previous Version | Text Only | Print | Product List | Glossary On
Versions: 1 2 3 4 5 6 7 8 9 10 11 12 13 14 15
000
UXUS97 KREV 211351
SRGREV

SOARING FORECAST
NATIONAL WEATHER SERVICE - RENO NV
700 AM PDT TUE APR 21 2015

THIS SOARING FORECAST IS FOR THE EASTERN SIERRA AND WESTERN NEVADA
WITH SPECIFIC INDICES FOR THE GREATER RENO AREA.

THIS FORECAST IS NOT UPDATED.

FOR CURRENT FLIGHT CONDITIONS...FORECASTS...AND ADVISORIES...ACCESS
YOUR LOCAL BRIEFING OUTLET OR FLIGHT SERVICE STATION.

*******************************************************************
LOCAL INDICES FOR RENO:                   TODAY     YESTERDAY
MAXIMUM TEMPERATURE AT RENO...(DEG F)...     76
TRIGGER TEMPERATURE...........(DEG F)...     66          66
   EXCEEDED YESTERDAY BY 19Z
MAXIMUM ALTITUDE..............(FT MSL)..  18000       17600
SOARING INDEX.................(FPM).....   1173        1158
FORECASTED K-INDEX.........VALID 18Z....     17           1
FORECASTED K-INDEX.........VALID 00Z....     28           0
FORECASTED LIFTED INDEX....VALID 18Z....      0           4
FORECASTED LIFTED INDEX....VALID 00Z....     -1           1

AFTERNOON WINDS ALOFT FORECAST
MSL (FT) WIND/TEMP
9000  2813/+06
10000 2709/+03
12000 9900/-01
14000 9902/-06
16000 1505/-12
18000 1112/-18
24000 1314/-31
30000 1713/-47
34000 1713/-57
39000 1711/-63

SLIDE MOUNTAIN DATA:
 SLD HR 1250 M 41/15/3602/M  /SLIDE MTN UNOFFICIAL OBSERVATION

RENO TAF FORECAST:
KRNO 211120Z 2112/2212 VRB04KT P6SM FEW200
     FM212200 27009KT P6SM VCTS SCT100CB BKN180
      TEMPO 2123/2202 VRB15G28KT -TSRA SCT060 BKN090CB
     FM220200 VRB04KT P6SM FEW090 BKN200

CARSON CITY TAF FORECAST:
KCXP 211120Z 2112/2212 VRB04KT P6SM FEW200
     FM212200 28010KT P6SM VCTS SCT100CB BKN180
      TEMPO 2123/2202 VRB15G28KT -TSRA SCT060 BKN090CB
     FM220200 VRB04KT P6SM FEW090 BKN200

OUTLOOK FOR THE RENO-CARSON CITY-MINDEN AREA:
.WEDNESDAY...MOSTLY CLOUDY. SLIGHT CHANCE OF SHOWERS IN THE
MORNING...THEN CHANCE OF SHOWERS AND THUNDERSTORMS IN THE
AFTERNOON. HIGHS 66 TO 71. NORTH WINDS UP TO 10 MPH.

SUNRISE AND SUNSET
APRIL 21 2015.........SUNRISE   614 AM PDT   SUNSET   743 PM PDT
APRIL 22 2015.........SUNRISE   612 AM PDT   SUNSET   744 PM PDT



THIS PRODUCT IS ROUTINELY PREPARED BY 700 AM AND IS
DISTRIBUTED TO THE RENO FLIGHT SERVICE STATION AS WELL AS THE
NATIONAL WEATHER SERVICE WORLD WIDE WEB HOMEPAGE AT:
       HTTP://WWW.WEATHER.GOV/RENO






USA.gov is the U.S. government's official web portal to all federal, state and local government web resources and services.